createdAt,value
2023-03-30T00:04:48.239Z,100616.98
2023-03-30T00:09:54.902Z,100609.21
2023-03-30T00:15:00.458Z,100605.95
2023-03-30T00:20:14.423Z,100603.95
2023-03-30T00:25:20.231Z,100605.88
2023-03-30T00:30:25.884Z,100601.30
2023-03-30T00:35:32.338Z,100594.28
2023-03-30T00:40:38.483Z,100582.30
2023-03-30T00:45:44.123Z,100577.35
2023-03-30T00:50:53.137Z,100577.89
2023-03-30T00:56:00.128Z,100578.44
2023-03-30T01:01:10.542Z,100569.34
2023-03-30T01:06:18.032Z,100561.11
2023-03-30T01:11:24.309Z,100554.92
2023-03-30T01:16:37.312Z,100543.41
2023-03-30T01:22:13.330Z,100538.60
2023-03-30T01:27:46.294Z,100537.06
2023-03-30T01:33:30.663Z,100537.92
2023-03-30T01:39:07.037Z,100550.14
2023-03-30T01:44:18.925Z,100549.63
2023-03-30T01:49:31.734Z,100543.96
2023-03-30T01:54:42.008Z,100537.77
2023-03-30T01:59:55.095Z,100532.44
2023-03-30T02:05:05.091Z,100531.59
2023-03-30T02:10:14.574Z,100526.27
2023-03-30T02:15:20.828Z,100520.42
2023-03-30T02:20:29.071Z,100513.20
2023-03-30T02:25:36.492Z,100518.02
2023-03-30T02:30:45.313Z,100520.25
2023-03-30T02:36:09.901Z,100514.92
2023-03-30T02:41:31.444Z,100507.02
2023-03-30T02:46:46.670Z,100504.78
2023-03-30T02:51:56.921Z,100504.08
2023-03-30T02:57:12.874Z,100500.80
2023-03-30T03:02:22.951Z,100494.43
2023-03-30T03:07:34.794Z,100487.37
2023-03-30T03:12:41.652Z,100489.41
2023-03-30T03:17:47.188Z,100485.64
2023-03-30T03:22:53.745Z,100478.73
2023-03-30T03:27:59.563Z,100474.59
2023-03-30T03:33:08.967Z,100465.66
2023-03-30T03:38:15.462Z,100453.79
2023-03-30T03:43:22.212Z,100456.71
2023-03-30T03:48:27.997Z,100456.23
2023-03-30T03:53:34.020Z,100456.55
2023-03-30T03:58:42.781Z,100452.08
2023-03-30T04:03:48.195Z,100446.91
2023-03-30T04:08:55.217Z,100443.65
2023-03-30T04:14:25.936Z,100441.24
2023-03-30T04:19:54.195Z,100440.56
2023-03-30T04:25:09.721Z,100433.70
2023-03-30T04:30:41.027Z,100431.29
2023-03-30T04:36:08.258Z,100428.38
2023-03-30T04:41:37.990Z,100425.47
2023-03-30T04:47:01.802Z,100423.08
2023-03-30T04:52:32.958Z,100417.23
2023-03-30T04:57:57.292Z,100415.19
2023-03-30T05:03:23.794Z,100409.16
2023-03-30T05:08:44.858Z,100403.31
2023-03-30T05:14:12.743Z,100406.05
2023-03-30T05:19:29.950Z,100406.70
2023-03-30T05:24:58.710Z,100406.33
2023-03-30T05:30:27.203Z,100402.68
2023-03-30T05:35:51.221Z,100395.58
2023-03-30T05:41:17.452Z,100392.77
2023-03-30T05:46:34.980Z,100395.67
2023-03-30T05:52:01.196Z,100399.09
2023-03-30T05:57:23.977Z,100394.59
2023-03-30T06:02:52.237Z,100394.00
2023-03-30T06:08:00.870Z,100385.60
2023-03-30T06:13:07.503Z,100380.10
2023-03-30T06:18:24.621Z,100377.55
2023-03-30T06:23:35.149Z,100375.52
2023-03-30T06:28:42.015Z,100380.55
2023-03-30T06:33:47.636Z,100376.98
2023-03-30T06:38:53.241Z,100373.52
2023-03-30T06:43:58.828Z,100371.66
2023-03-30T06:49:14.086Z,100372.99
2023-03-30T06:54:20.798Z,100372.38
2023-03-30T06:59:34.568Z,100371.98
2023-03-30T07:05:01.141Z,100364.52
2023-03-30T07:10:27.556Z,100360.13
2023-03-30T07:15:34.540Z,100357.02
2023-03-30T07:20:40.449Z,100355.62
2023-03-30T07:25:51.682Z,100357.00
2023-03-30T07:31:08.411Z,100349.06
2023-03-30T07:36:15.373Z,100347.15
2023-03-30T07:41:21.403Z,100347.57
2023-03-30T07:46:29.710Z,100355.41
2023-03-30T07:51:35.537Z,100353.26
2023-03-30T07:56:52.706Z,100343.52
2023-03-30T08:01:59.255Z,100336.23
2023-03-30T08:07:28.013Z,100334.20
2023-03-30T08:12:39.707Z,100335.52
2023-03-30T08:17:46.103Z,100332.14
2023-03-30T08:22:51.629Z,100334.60
2023-03-30T08:27:57.054Z,100328.00
2023-03-30T08:33:03.136Z,100326.08
2023-03-30T08:38:10.177Z,100322.21
2023-03-30T08:43:25.744Z,100317.40
2023-03-30T08:48:37.424Z,100316.00
2023-03-30T08:53:44.369Z,100315.23
2023-03-30T08:58:59.443Z,100307.66
2023-03-30T09:04:19.369Z,100302.00
2023-03-30T09:09:28.729Z,100295.31
2023-03-30T09:14:40.497Z,100282.61
2023-03-30T09:19:53.942Z,100271.38
2023-03-30T09:24:59.817Z,100262.94
2023-03-30T09:31:19.282Z,100254.76
2023-03-30T09:36:35.258Z,100248.82
2023-03-30T09:41:56.845Z,100242.50
2023-03-30T09:47:25.143Z,100232.33
2023-03-30T09:52:32.491Z,100223.27
2023-03-30T09:57:38.048Z,100213.02
2023-03-30T10:02:57.439Z,100212.32
2023-03-30T10:08:05.775Z,100211.73
2023-03-30T10:13:16.444Z,100214.14
2023-03-30T10:18:27.846Z,100207.70
2023-03-30T10:23:40.197Z,100199.46
2023-03-30T10:28:55.041Z,100192.40
2023-03-30T10:34:02.513Z,100175.14
2023-03-30T10:39:17.174Z,100157.11
2023-03-30T10:44:29.854Z,100145.52
2023-03-30T10:49:46.568Z,100140.84
2023-03-30T10:55:00.453Z,100132.92
2023-03-30T11:00:20.713Z,100125.36
2023-03-30T11:05:33.156Z,100122.49
2023-03-30T11:10:43.582Z,100108.14
2023-03-30T11:15:54.182Z,100104.88
2023-03-30T11:21:04.596Z,100102.52
2023-03-30T11:26:12.832Z,100102.42
2023-03-30T11:31:31.431Z,100093.69
2023-03-30T11:36:46.288Z,100081.73
2023-03-30T11:41:57.353Z,100074.52
2023-03-30T11:47:14.633Z,100066.29
2023-03-30T11:52:29.516Z,100054.81
2023-03-30T11:57:41.056Z,100046.80
2023-03-30T12:02:53.647Z,100037.69
2023-03-30T12:08:10.823Z,100028.45
2023-03-30T12:13:19.667Z,100016.56
2023-03-30T12:18:36.540Z,100005.27
2023-03-30T12:23:47.798Z,99999.83
2023-03-30T12:34:18.885Z,99983.13
2023-03-30T12:39:31.193Z,99990.42
2023-03-30T12:44:47.532Z,99984.52
2023-03-30T12:50:04.396Z,99968.47
2023-03-30T12:55:23.899Z,99961.58
2023-03-30T13:00:56.500Z,99962.65
2023-03-30T13:06:06.053Z,99961.90
2023-03-30T13:11:15.164Z,99955.69
2023-03-30T13:17:10.439Z,99963.08
2023-03-30T13:22:29.475Z,99960.55
2023-03-30T13:27:36.862Z,99953.74
2023-03-30T13:33:04.902Z,99951.97
2023-03-30T13:38:40.441Z,99940.71
2023-03-30T13:44:00.275Z,99935.39
2023-03-30T13:49:23.816Z,99920.69
2023-03-30T13:54:32.941Z,99919.29
2023-03-30T13:59:43.532Z,99912.02
2023-03-30T14:04:50.568Z,99898.42
2023-03-30T14:10:09.526Z,99889.98
2023-03-30T14:15:21.884Z,99894.38
2023-03-30T14:20:45.548Z,99890.57
2023-03-30T14:25:58.383Z,99876.90
2023-03-30T14:31:12.038Z,99866.26
2023-03-30T14:36:20.723Z,99861.95
2023-03-30T14:41:28.169Z,99860.10
2023-03-30T14:46:39.896Z,99846.40
2023-03-30T14:51:48.202Z,99845.01
2023-03-30T14:56:58.848Z,99843.43
2023-03-30T15:02:05.688Z,99839.75
2023-03-30T15:07:16.426Z,99833.95
2023-03-30T15:12:27.254Z,99834.66
2023-03-30T15:17:34.960Z,99829.33
2023-03-30T15:22:44.636Z,99823.10
2023-03-30T15:27:56.343Z,99822.33
2023-03-30T15:33:02.528Z,99821.02
2023-03-30T15:38:16.385Z,99814.38
2023-03-30T15:43:25.727Z,99809.00
2023-03-30T15:48:35.986Z,99802.40
2023-03-30T15:53:49.849Z,99794.92
2023-03-30T15:58:57.155Z,99779.67
2023-03-30T16:04:05.411Z,99767.06
2023-03-30T16:09:11.012Z,99762.58
2023-03-30T16:14:22.138Z,99758.80
2023-03-30T16:19:28.561Z,99752.60
2023-03-30T16:24:34.508Z,99746.32
2023-03-30T16:29:40.182Z,99738.36
2023-03-30T16:34:46.389Z,99731.27
2023-03-30T16:39:52.102Z,99732.71
2023-03-30T16:44:57.588Z,99728.72
2023-03-30T16:50:09.987Z,99729.23
2023-03-30T16:55:16.825Z,99721.98
2023-03-30T17:00:26.969Z,99716.77
2023-03-30T17:05:32.696Z,99707.85
2023-03-30T17:10:41.704Z,99706.60
2023-03-30T17:15:47.308Z,99695.96
2023-03-30T17:20:54.454Z,99695.80
2023-03-30T17:26:02.062Z,99690.48
2023-03-30T17:31:12.873Z,99684.72
2023-03-30T17:36:22.776Z,99672.47
2023-03-30T17:41:33.917Z,99674.19
2023-03-30T17:46:43.239Z,99674.80
2023-03-30T17:51:49.924Z,99677.23
2023-03-30T17:56:56.377Z,99682.59
2023-03-30T18:02:03.926Z,99680.76
2023-03-30T18:07:12.844Z,99680.41
2023-03-30T18:12:19.748Z,99673.12
2023-03-30T18:17:27.168Z,99675.04
2023-03-30T18:22:33.484Z,99667.38
2023-03-30T18:27:39.575Z,99657.70
2023-03-30T18:32:47.477Z,99645.73
2023-03-30T18:37:54.563Z,99646.55
2023-03-30T18:43:01.058Z,99644.86
2023-03-30T18:48:11.236Z,99635.96
2023-03-30T18:53:19.146Z,99630.40
2023-03-30T18:58:27.365Z,99629.90
2023-03-30T19:03:33.238Z,99633.66
2023-03-30T19:08:39.264Z,99635.65
2023-03-30T19:13:47.211Z,99636.02
2023-03-30T19:18:53.927Z,99642.72
2023-03-30T19:23:59.384Z,99641.52
2023-03-30T19:29:04.922Z,99633.39
2023-03-30T19:34:10.639Z,99628.52
2023-03-30T19:39:16.606Z,99615.59
2023-03-30T19:44:24.113Z,99609.30
2023-03-30T19:49:29.876Z,99611.08
2023-03-30T19:54:35.749Z,99607.03
2023-03-30T19:59:41.173Z,99601.71
2023-03-30T20:04:47.329Z,99601.48
2023-03-30T20:09:52.905Z,99582.96
2023-03-30T20:14:58.989Z,99581.87
2023-03-30T20:20:08.862Z,99580.43
2023-03-30T20:25:16.605Z,99571.30
2023-03-30T20:30:22.545Z,99566.98
2023-03-30T20:35:28.517Z,99563.70
2023-03-30T20:40:33.912Z,99561.35
2023-03-30T20:45:46.185Z,99553.21
2023-03-30T20:50:52.014Z,99551.84
2023-03-30T20:55:57.502Z,99552.80
2023-03-30T21:01:13.600Z,99549.95
2023-03-30T21:06:23.638Z,99546.59
2023-03-30T21:11:31.052Z,99541.28
2023-03-30T21:16:37.939Z,99529.42
2023-03-30T21:21:43.458Z,99531.95
2023-03-30T21:26:48.931Z,99529.86
2023-03-30T21:31:54.315Z,99526.34
2023-03-30T21:37:00.001Z,99525.94
2023-03-30T21:42:05.823Z,99520.59
2023-03-30T21:47:15.133Z,99515.70
2023-03-30T21:52:20.924Z,99502.23
2023-03-30T21:57:27.187Z,99493.70
2023-03-30T22:02:33.346Z,99481.61
2023-03-30T22:07:40.187Z,99477.79
2023-03-30T22:12:45.695Z,99468.36
2023-03-30T22:17:51.243Z,99467.95
2023-03-30T22:22:57.844Z,99461.18
2023-03-30T22:28:03.429Z,99457.23
2023-03-30T22:33:08.988Z,99451.44
2023-03-30T22:38:15.417Z,99448.61
2023-03-30T22:43:20.984Z,99444.20
2023-03-30T22:48:27.518Z,99439.22
2023-03-30T22:53:33.864Z,99440.04
2023-03-30T22:58:39.668Z,99436.25
2023-03-30T23:03:45.792Z,99438.17
2023-03-30T23:08:52.924Z,99437.64
2023-03-30T23:14:05.110Z,99422.95
2023-03-30T23:19:12.054Z,99418.34
2023-03-30T23:24:17.569Z,99414.27
2023-03-30T23:29:23.699Z,99417.51
2023-03-30T23:34:29.644Z,99425.77
2023-03-30T23:39:35.120Z,99431.65
2023-03-30T23:44:40.798Z,99435.95
2023-03-30T23:49:46.151Z,99438.27
2023-03-30T23:54:52.439Z,99436.45
2023-03-30T23:59:58.000Z,99443.12
